sensor_id;sensor_type;location;lat;lon;timestamp;P1;durP1;ratioP1;P2;durP2;ratioP2
39344;SDS011;25061;51.954;6.996;2023-09-18T04:31:50;12.60;;;6.13;;
39344;SDS011;25061;51.954;6.996;2023-09-18T04:34:15;13.30;;;6.78;;
39344;SDS011;25061;51.954;6.996;2023-09-18T04:36:41;16.38;;;6.00;;
39344;SDS011;25061;51.954;6.996;2023-09-18T04:39:08;13.82;;;6.25;;
39344;SDS011;25061;51.954;6.996;2023-09-18T04:41:34;14.00;;;6.35;;
39344;SDS011;25061;51.954;6.996;2023-09-18T04:44:00;13.43;;;6.20;;
39344;SDS011;25061;51.954;6.996;2023-09-18T04:46:26;14.75;;;5.90;;
39344;SDS011;25061;51.954;6.996;2023-09-18T04:48:52;13.98;;;6.43;;
39344;SDS011;25061;51.954;6.996;2023-09-18T04:51:18;14.15;;;6.68;;
39344;SDS011;25061;51.954;6.996;2023-09-18T04:53:43;14.38;;;6.57;;
39344;SDS011;25061;51.954;6.996;2023-09-18T04:56:09;13.13;;;6.07;;
39344;SDS011;25061;51.954;6.996;2023-09-18T04:58:38;13.82;;;7.05;;
39344;SDS011;25061;51.954;6.996;2023-09-18T05:01:04;15.48;;;6.00;;
39344;SDS011;25061;51.954;6.996;2023-09-18T05:03:34;11.50;;;5.88;;
39344;SDS011;25061;51.954;6.996;2023-09-18T05:05:59;15.38;;;6.45;;
39344;SDS011;25061;51.954;6.996;2023-09-18T05:08:25;14.18;;;5.88;;
39344;SDS011;25061;51.954;6.996;2023-09-18T05:10:51;15.77;;;6.18;;
39344;SDS011;25061;51.954;6.996;2023-09-18T05:13:16;13.68;;;6.13;;
39344;SDS011;25061;51.954;6.996;2023-09-18T05:15:42;13.65;;;5.53;;
39344;SDS011;25061;51.954;6.996;2023-09-18T05:18:08;13.32;;;6.07;;
39344;SDS011;25061;51.954;6.996;2023-09-18T05:20:34;13.55;;;6.15;;
39344;SDS011;25061;51.954;6.996;2023-09-18T05:22:59;15.95;;;7.00;;
39344;SDS011;25061;51.954;6.996;2023-09-18T05:25:27;18.15;;;6.22;;
39344;SDS011;25061;51.954;6.996;2023-09-18T05:27:57;13.93;;;6.57;;
39344;SDS011;25061;51.954;6.996;2023-09-18T05:30:25;14.73;;;6.45;;
39344;SDS011;25061;51.954;6.996;2023-09-18T05:32:57;14.50;;;6.47;;
39344;SDS011;25061;51.954;6.996;2023-09-18T05:35:29;15.20;;;6.55;;
39344;SDS011;25061;51.954;6.996;2023-09-18T05:38:06;15.35;;;6.60;;
39344;SDS011;25061;51.954;6.996;2023-09-18T05:40:32;16.38;;;7.18;;
39344;SDS011;25061;51.954;6.996;2023-09-18T05:42:58;15.13;;;7.40;;
39344;SDS011;25061;51.954;6.996;2023-09-18T05:45:24;17.73;;;6.85;;
39344;SDS011;25061;51.954;6.996;2023-09-18T05:47:51;17.77;;;7.05;;
39344;SDS011;25061;51.954;6.996;2023-09-18T05:50:18;15.52;;;7.00;;
39344;SDS011;25061;51.954;6.996;2023-09-18T05:52:46;15.43;;;6.50;;
39344;SDS011;25061;51.954;6.996;2023-09-18T05:55:13;14.50;;;6.63;;
39344;SDS011;25061;51.954;6.996;2023-09-18T05:57:40;16.60;;;6.63;;
39344;SDS011;25061;51.954;6.996;2023-09-18T06:00:05;12.43;;;6.35;;
39344;SDS011;25061;51.954;6.996;2023-09-18T06:02:31;17.08;;;6.90;;
39344;SDS011;25061;51.954;6.996;2023-09-18T06:04:58;13.90;;;6.93;;
39344;SDS011;25061;51.954;6.996;2023-09-18T06:07:27;16.48;;;6.90;;
39344;SDS011;25061;51.954;6.996;2023-09-18T06:09:54;17.52;;;7.20;;
39344;SDS011;25061;51.954;6.996;2023-09-18T06:12:19;14.68;;;7.30;;
39344;SDS011;25061;51.954;6.996;2023-09-18T06:14:46;18.20;;;7.63;;
39344;SDS011;25061;51.954;6.996;2023-09-18T06:17:13;14.57;;;7.20;;
39344;SDS011;25061;51.954;6.996;2023-09-18T06:19:39;16.02;;;7.13;;
39344;SDS011;25061;51.954;6.996;2023-09-18T06:22:05;16.30;;;7.18;;
39344;SDS011;25061;51.954;6.996;2023-09-18T06:24:32;16.75;;;8.00;;
39344;SDS011;25061;51.954;6.996;2023-09-18T06:26:58;17.33;;;8.23;;
39344;SDS011;25061;51.954;6.996;2023-09-18T06:29:24;17.65;;;8.05;;
39344;SDS011;25061;51.954;6.996;2023-09-18T06:31:50;15.07;;;7.47;;
39344;SDS011;25061;51.954;6.996;2023-09-18T06:34:16;12.88;;;7.00;;
39344;SDS011;25061;51.954;6.996;2023-09-18T06:36:41;16.60;;;7.10;;
39344;SDS011;25061;51.954;6.996;2023-09-18T06:39:07;17.50;;;6.90;;
39344;SDS011;25061;51.954;6.996;2023-09-18T06:41:33;17.33;;;7.80;;
39344;SDS011;25061;51.954;6.996;2023-09-18T06:43:59;14.85;;;7.15;;
39344;SDS011;25061;51.954;6.996;2023-09-18T06:46:27;15.50;;;6.85;;
39344;SDS011;25061;51.954;6.996;2023-09-18T06:48:54;14.55;;;6.82;;
39344;SDS011;25061;51.954;6.996;2023-09-18T06:51:21;16.77;;;7.10;;
39344;SDS011;25061;51.954;6.996;2023-09-18T06:53:47;17.60;;;6.68;;
39344;SDS011;25061;51.954;6.996;2023-09-18T06:56:12;14.73;;;6.32;;
39344;SDS011;25061;51.954;6.996;2023-09-18T06:58:38;14.65;;;6.60;;
39344;SDS011;25061;51.954;6.996;2023-09-18T07:01:05;16.40;;;6.30;;
39344;SDS011;25061;51.954;6.996;2023-09-18T07:03:34;15.80;;;6.18;;
39344;SDS011;25061;51.954;6.996;2023-09-18T07:06:01;13.98;;;5.47;;
39344;SDS011;25061;51.954;6.996;2023-09-18T07:08:27;16.63;;;6.47;;
39344;SDS011;25061;51.954;6.996;2023-09-18T07:10:53;16.45;;;6.03;;
39344;SDS011;25061;51.954;6.996;2023-09-18T07:13:19;16.40;;;6.00;;
39344;SDS011;25061;51.954;6.996;2023-09-18T07:15:45;16.88;;;6.15;;
39344;SDS011;25061;51.954;6.996;2023-09-18T07:18:10;15.43;;;5.28;;
39344;SDS011;25061;51.954;6.996;2023-09-18T07:20:39;15.63;;;5.80;;
39344;SDS011;25061;51.954;6.996;2023-09-18T07:23:06;13.00;;;5.35;;
39344;SDS011;25061;51.954;6.996;2023-09-18T07:25:32;12.43;;;5.35;;
39344;SDS011;25061;51.954;6.996;2023-09-18T07:28:00;14.00;;;4.75;;
39344;SDS011;25061;51.954;6.996;2023-09-18T07:30:27;12.05;;;4.75;;
39344;SDS011;25061;51.954;6.996;2023-09-18T07:32:57;12.63;;;5.35;;
39344;SDS011;25061;51.954;6.996;2023-09-18T07:35:24;12.98;;;4.28;;
39344;SDS011;25061;51.954;6.996;2023-09-18T07:37:50;11.20;;;4.72;;
39344;SDS011;25061;51.954;6.996;2023-09-18T07:40:17;11.57;;;4.13;;
39344;SDS011;25061;51.954;6.996;2023-09-18T07:42:43;11.65;;;4.80;;
39344;SDS011;25061;51.954;6.996;2023-09-18T07:45:09;11.55;;;4.20;;
39344;SDS011;25061;51.954;6.996;2023-09-18T07:47:36;11.10;;;3.88;;
39344;SDS011;25061;51.954;6.996;2023-09-18T07:50:02;14.00;;;4.10;;
39344;SDS011;25061;51.954;6.996;2023-09-18T07:52:28;10.85;;;3.97;;
39344;SDS011;25061;51.954;6.996;2023-09-18T07:54:54;9.05;;;3.67;;
39344;SDS011;25061;51.954;6.996;2023-09-18T07:57:21;9.23;;;3.78;;
39344;SDS011;25061;51.954;6.996;2023-09-18T07:59:48;10.77;;;4.40;;
39344;SDS011;25061;51.954;6.996;2023-09-18T08:02:14;9.23;;;3.20;;
39344;SDS011;25061;51.954;6.996;2023-09-18T08:04:39;9.52;;;3.50;;
39344;SDS011;25061;51.954;6.996;2023-09-18T08:07:05;9.02;;;3.03;;
39344;SDS011;25061;51.954;6.996;2023-09-18T08:09:32;6.88;;;2.47;;
39344;SDS011;25061;51.954;6.996;2023-09-18T08:12:01;11.25;;;2.85;;
39344;SDS011;25061;51.954;6.996;2023-09-18T08:17:01;8.75;;;3.08;;
39344;SDS011;25061;51.954;6.996;2023-09-18T08:19:29;8.75;;;2.40;;
39344;SDS011;25061;51.954;6.996;2023-09-18T08:21:55;7.10;;;2.10;;
39344;SDS011;25061;51.954;6.996;2023-09-18T08:24:21;9.65;;;2.70;;
39344;SDS011;25061;51.954;6.996;2023-09-18T08:26:48;6.88;;;2.30;;
39344;SDS011;25061;51.954;6.996;2023-09-18T08:29:14;9.27;;;2.40;;
39344;SDS011;25061;51.954;6.996;2023-09-18T08:31:40;9.10;;;2.28;;
39344;SDS011;25061;51.954;6.996;2023-09-18T08:34:06;8.73;;;2.50;;
39344;SDS011;25061;51.954;6.996;2023-09-18T08:36:31;9.27;;;2.40;;
39344;SDS011;25061;51.954;6.996;2023-09-18T08:38:57;6.97;;;2.10;;
39344;SDS011;25061;51.954;6.996;2023-09-18T08:41:23;7.95;;;2.33;;
39344;SDS011;25061;51.954;6.996;2023-09-18T08:43:52;8.68;;;2.28;;
39344;SDS011;25061;51.954;6.996;2023-09-18T08:46:24;5.75;;;2.00;;
39344;SDS011;25061;51.954;6.996;2023-09-18T08:48:50;8.05;;;1.90;;
39344;SDS011;25061;51.954;6.996;2023-09-18T08:51:17;5.15;;;2.05;;
39344;SDS011;25061;51.954;6.996;2023-09-18T08:53:43;7.85;;;2.25;;
39344;SDS011;25061;51.954;6.996;2023-09-18T08:56:10;7.97;;;2.33;;
39344;SDS011;25061;51.954;6.996;2023-09-18T08:58:39;6.05;;;1.85;;
39344;SDS011;25061;51.954;6.996;2023-09-18T09:01:07;8.40;;;2.38;;
39344;SDS011;25061;51.954;6.996;2023-09-18T09:03:38;7.70;;;1.98;;
39344;SDS011;25061;51.954;6.996;2023-09-18T09:06:05;7.38;;;2.17;;
39344;SDS011;25061;51.954;6.996;2023-09-18T09:08:32;7.88;;;2.30;;
39344;SDS011;25061;51.954;6.996;2023-09-18T09:10:58;8.70;;;2.33;;
39344;SDS011;25061;51.954;6.996;2023-09-18T09:13:24;6.30;;;2.20;;
39344;SDS011;25061;51.954;6.996;2023-09-18T09:15:54;8.20;;;2.20;;
39344;SDS011;25061;51.954;6.996;2023-09-18T09:18:22;4.70;;;2.08;;
39344;SDS011;25061;51.954;6.996;2023-09-18T09:20:55;6.80;;;2.00;;
39344;SDS011;25061;51.954;6.996;2023-09-18T09:23:26;7.07;;;2.38;;
39344;SDS011;25061;51.954;6.996;2023-09-18T09:26:00;5.85;;;2.20;;
39344;SDS011;25061;51.954;6.996;2023-09-18T09:28:40;6.45;;;2.28;;
39344;SDS011;25061;51.954;6.996;2023-09-18T09:31:09;5.95;;;1.92;;
39344;SDS011;25061;51.954;6.996;2023-09-18T09:33:36;7.60;;;1.88;;
39344;SDS011;25061;51.954;6.996;2023-09-18T09:36:04;7.75;;;2.00;;
39344;SDS011;25061;51.954;6.996;2023-09-18T09:38:31;6.47;;;1.85;;
39344;SDS011;25061;51.954;6.996;2023-09-18T09:40:59;7.28;;;1.70;;
39344;SDS011;25061;51.954;6.996;2023-09-18T09:43:26;6.80;;;2.15;;
39344;SDS011;25061;51.954;6.996;2023-09-18T09:45:57;5.72;;;1.90;;
39344;SDS011;25061;51.954;6.996;2023-09-18T09:48:24;6.35;;;2.10;;
39344;SDS011;25061;51.954;6.996;2023-09-18T09:50:50;5.88;;;1.90;;
39344;SDS011;25061;51.954;6.996;2023-09-18T09:53:20;7.60;;;2.00;;
39344;SDS011;25061;51.954;6.996;2023-09-18T09:58:39;7.70;;;2.08;;
39344;SDS011;25061;51.954;6.996;2023-09-18T10:01:09;4.72;;;2.00;;
39344;SDS011;25061;51.954;6.996;2023-09-18T10:03:42;5.80;;;1.75;;
39344;SDS011;25061;51.954;6.996;2023-09-18T10:06:09;7.65;;;2.05;;
39344;SDS011;25061;51.954;6.996;2023-09-18T10:08:38;8.25;;;2.67;;
39344;SDS011;25061;51.954;6.996;2023-09-18T10:11:08;7.80;;;1.80;;
39344;SDS011;25061;51.954;6.996;2023-09-18T10:13:46;5.82;;;1.90;;
39344;SDS011;25061;51.954;6.996;2023-09-18T10:16:16;6.10;;;1.90;;
39344;SDS011;25061;51.954;6.996;2023-09-18T10:21:35;6.20;;;1.73;;
39344;SDS011;25061;51.954;6.996;2023-09-18T10:24:19;9.23;;;2.00;;
39344;SDS011;25061;51.954;6.996;2023-09-18T10:26:55;6.47;;;1.80;;
39344;SDS011;25061;51.954;6.996;2023-09-18T10:29:26;8.02;;;1.90;;
39344;SDS011;25061;51.954;6.996;2023-09-18T10:31:52;6.65;;;1.90;;
39344;SDS011;25061;51.954;6.996;2023-09-18T10:34:19;5.10;;;1.90;;
39344;SDS011;25061;51.954;6.996;2023-09-18T10:36:54;6.82;;;2.22;;
39344;SDS011;25061;51.954;6.996;2023-09-18T10:39:20;5.88;;;2.13;;
39344;SDS011;25061;51.954;6.996;2023-09-18T10:41:55;4.75;;;1.70;;
39344;SDS011;25061;51.954;6.996;2023-09-18T10:44:22;6.53;;;1.65;;
39344;SDS011;25061;51.954;6.996;2023-09-18T10:46:48;3.97;;;1.63;;
39344;SDS011;25061;51.954;6.996;2023-09-18T10:49:17;6.28;;;1.88;;
39344;SDS011;25061;51.954;6.996;2023-09-18T10:51:44;7.88;;;2.00;;
39344;SDS011;25061;51.954;6.996;2023-09-18T10:54:14;5.00;;;1.80;;
39344;SDS011;25061;51.954;6.996;2023-09-18T10:56:42;5.88;;;1.77;;
39344;SDS011;25061;51.954;6.996;2023-09-18T10:59:08;7.68;;;1.77;;
39344;SDS011;25061;51.954;6.996;2023-09-18T11:01:34;6.97;;;1.92;;
39344;SDS011;25061;51.954;6.996;2023-09-18T11:04:02;7.00;;;1.80;;
39344;SDS011;25061;51.954;6.996;2023-09-18T11:06:33;9.32;;;2.33;;
39344;SDS011;25061;51.954;6.996;2023-09-18T11:09:20;5.40;;;1.85;;
39344;SDS011;25061;51.954;6.996;2023-09-18T11:17:29;8.27;;;1.70;;
39344;SDS011;25061;51.954;6.996;2023-09-18T11:22:51;5.15;;;1.65;;
39344;SDS011;25061;51.954;6.996;2023-09-18T11:25:37;7.10;;;2.30;;
39344;SDS011;25061;51.954;6.996;2023-09-18T11:28:07;6.93;;;1.95;;
39344;SDS011;25061;51.954;6.996;2023-09-18T11:30:38;8.48;;;1.90;;
39344;SDS011;25061;51.954;6.996;2023-09-18T11:33:12;8.82;;;2.42;;
39344;SDS011;25061;51.954;6.996;2023-09-18T11:35:38;6.78;;;2.05;;
39344;SDS011;25061;51.954;6.996;2023-09-18T11:38:15;8.10;;;2.22;;
39344;SDS011;25061;51.954;6.996;2023-09-18T11:40:42;6.70;;;2.40;;
39344;SDS011;25061;51.954;6.996;2023-09-18T11:43:26;8.25;;;2.30;;
39344;SDS011;25061;51.954;6.996;2023-09-18T11:45:57;9.02;;;2.30;;
39344;SDS011;25061;51.954;6.996;2023-09-18T11:48:24;9.88;;;2.55;;
39344;SDS011;25061;51.954;6.996;2023-09-18T11:50:55;8.98;;;2.58;;
39344;SDS011;25061;51.954;6.996;2023-09-18T11:53:24;8.88;;;2.47;;
39344;SDS011;25061;51.954;6.996;2023-09-18T11:55:51;7.93;;;2.55;;
39344;SDS011;25061;51.954;6.996;2023-09-18T11:58:17;7.45;;;2.65;;
39344;SDS011;25061;51.954;6.996;2023-09-18T12:00:47;8.90;;;2.75;;
39344;SDS011;25061;51.954;6.996;2023-09-18T12:03:14;6.30;;;2.20;;
39344;SDS011;25061;51.954;6.996;2023-09-18T12:05:53;6.45;;;2.22;;
39344;SDS011;25061;51.954;6.996;2023-09-18T12:08:19;8.65;;;2.30;;
39344;SDS011;25061;51.954;6.996;2023-09-18T12:10:48;9.48;;;2.70;;
39344;SDS011;25061;51.954;6.996;2023-09-18T12:13:15;8.18;;;2.72;;
39344;SDS011;25061;51.954;6.996;2023-09-18T12:15:42;9.50;;;3.10;;
39344;SDS011;25061;51.954;6.996;2023-09-18T12:18:09;8.70;;;2.33;;
39344;SDS011;25061;51.954;6.996;2023-09-18T12:20:37;8.32;;;2.38;;
39344;SDS011;25061;51.954;6.996;2023-09-18T12:23:03;7.20;;;2.53;;
39344;SDS011;25061;51.954;6.996;2023-09-18T12:25:29;9.73;;;2.40;;
39344;SDS011;25061;51.954;6.996;2023-09-18T12:27:54;10.52;;;3.00;;
39344;SDS011;25061;51.954;6.996;2023-09-18T12:30:21;9.23;;;2.65;;
39344;SDS011;25061;51.954;6.996;2023-09-18T12:32:48;10.52;;;2.50;;
39344;SDS011;25061;51.954;6.996;2023-09-18T12:35:17;9.02;;;2.58;;
39344;SDS011;25061;51.954;6.996;2023-09-18T12:37:44;13.27;;;2.60;;
39344;SDS011;25061;51.954;6.996;2023-09-18T12:40:25;10.48;;;2.45;;
39344;SDS011;25061;51.954;6.996;2023-09-18T12:42:58;7.90;;;2.50;;
39344;SDS011;25061;51.954;6.996;2023-09-18T12:45:24;8.52;;;2.85;;
39344;SDS011;25061;51.954;6.996;2023-09-18T12:47:51;6.70;;;2.40;;
39344;SDS011;25061;51.954;6.996;2023-09-18T12:50:28;9.15;;;2.55;;
39344;SDS011;25061;51.954;6.996;2023-09-18T12:53:21;5.35;;;2.22;;
39344;SDS011;25061;51.954;6.996;2023-09-18T12:55:46;7.18;;;2.40;;
39344;SDS011;25061;51.954;6.996;2023-09-18T12:58:13;7.03;;;2.10;;
39344;SDS011;25061;51.954;6.996;2023-09-18T13:00:44;8.18;;;2.35;;
39344;SDS011;25061;51.954;6.996;2023-09-18T13:03:20;5.82;;;2.10;;
39344;SDS011;25061;51.954;6.996;2023-09-18T13:05:45;7.80;;;2.35;;
39344;SDS011;25061;51.954;6.996;2023-09-18T13:08:21;6.90;;;2.40;;
39344;SDS011;25061;51.954;6.996;2023-09-18T13:10:48;7.97;;;2.28;;
39344;SDS011;25061;51.954;6.996;2023-09-18T13:13:18;8.05;;;2.30;;
39344;SDS011;25061;51.954;6.996;2023-09-18T13:15:45;10.23;;;2.42;;
39344;SDS011;25061;51.954;6.996;2023-09-18T13:18:13;6.10;;;2.30;;
39344;SDS011;25061;51.954;6.996;2023-09-18T13:20:40;8.38;;;2.40;;
39344;SDS011;25061;51.954;6.996;2023-09-18T13:23:06;6.97;;;2.28;;
39344;SDS011;25061;51.954;6.996;2023-09-18T13:25:36;11.45;;;2.47;;
39344;SDS011;25061;51.954;6.996;2023-09-18T13:28:04;7.15;;;2.42;;
39344;SDS011;25061;51.954;6.996;2023-09-18T13:30:31;7.13;;;2.17;;
39344;SDS011;25061;51.954;6.996;2023-09-18T13:33:04;7.88;;;2.10;;
39344;SDS011;25061;51.954;6.996;2023-09-18T13:35:39;6.93;;;2.38;;
39344;SDS011;25061;51.954;6.996;2023-09-18T13:40:36;7.05;;;2.13;;
39344;SDS011;25061;51.954;6.996;2023-09-18T13:43:02;9.15;;;2.20;;
39344;SDS011;25061;51.954;6.996;2023-09-18T13:45:30;8.48;;;2.30;;
39344;SDS011;25061;51.954;6.996;2023-09-18T13:47:56;7.60;;;2.38;;
39344;SDS011;25061;51.954;6.996;2023-09-18T13:50:21;5.97;;;2.00;;
39344;SDS011;25061;51.954;6.996;2023-09-18T13:52:47;7.05;;;2.00;;
39344;SDS011;25061;51.954;6.996;2023-09-18T13:55:13;8.02;;;2.22;;
39344;SDS011;25061;51.954;6.996;2023-09-18T13:57:39;7.85;;;2.00;;
39344;SDS011;25061;51.954;6.996;2023-09-18T14:00:05;7.03;;;2.10;;
39344;SDS011;25061;51.954;6.996;2023-09-18T14:02:37;6.33;;;2.13;;
39344;SDS011;25061;51.954;6.996;2023-09-18T14:05:03;8.20;;;2.08;;
39344;SDS011;25061;51.954;6.996;2023-09-18T14:07:30;8.40;;;1.95;;
39344;SDS011;25061;51.954;6.996;2023-09-18T14:09:55;7.88;;;2.35;;
39344;SDS011;25061;51.954;6.996;2023-09-18T14:12:24;7.18;;;2.20;;
39344;SDS011;25061;51.954;6.996;2023-09-18T14:14:53;6.25;;;2.08;;
39344;SDS011;25061;51.954;6.996;2023-09-18T14:17:19;6.10;;;2.05;;
39344;SDS011;25061;51.954;6.996;2023-09-18T14:19:46;8.07;;;2.30;;
39344;SDS011;25061;51.954;6.996;2023-09-18T14:22:14;9.15;;;2.38;;
39344;SDS011;25061;51.954;6.996;2023-09-18T14:24:40;6.70;;;2.17;;
39344;SDS011;25061;51.954;6.996;2023-09-18T14:27:06;6.20;;;2.10;;
39344;SDS011;25061;51.954;6.996;2023-09-18T14:29:32;6.47;;;2.00;;
39344;SDS011;25061;51.954;6.996;2023-09-18T14:31:58;7.80;;;2.20;;
39344;SDS011;25061;51.954;6.996;2023-09-18T14:34:25;7.63;;;2.28;;
39344;SDS011;25061;51.954;6.996;2023-09-18T14:36:50;7.15;;;2.15;;
39344;SDS011;25061;51.954;6.996;2023-09-18T14:39:16;7.10;;;2.05;;
39344;SDS011;25061;51.954;6.996;2023-09-18T14:41:42;6.70;;;1.83;;
39344;SDS011;25061;51.954;6.996;2023-09-18T14:44:08;5.82;;;1.95;;
39344;SDS011;25061;51.954;6.996;2023-09-18T14:46:34;9.65;;;1.90;;
39344;SDS011;25061;51.954;6.996;2023-09-18T14:49:02;5.82;;;2.05;;
39344;SDS011;25061;51.954;6.996;2023-09-18T14:51:28;7.18;;;2.15;;
39344;SDS011;25061;51.954;6.996;2023-09-18T14:53:57;11.50;;;2.08;;
39344;SDS011;25061;51.954;6.996;2023-09-18T14:56:24;7.50;;;1.98;;
39344;SDS011;25061;51.954;6.996;2023-09-18T14:58:50;5.43;;;1.92;;
39344;SDS011;25061;51.954;6.996;2023-09-18T15:01:17;4.75;;;1.85;;
39344;SDS011;25061;51.954;6.996;2023-09-18T15:03:43;5.47;;;1.60;;
39344;SDS011;25061;51.954;6.996;2023-09-18T15:06:09;6.55;;;1.90;;
39344;SDS011;25061;51.954;6.996;2023-09-18T15:08:35;7.68;;;1.80;;
39344;SDS011;25061;51.954;6.996;2023-09-18T15:11:01;6.55;;;2.05;;
39344;SDS011;25061;51.954;6.996;2023-09-18T15:13:28;11.18;;;1.90;;
39344;SDS011;25061;51.954;6.996;2023-09-18T15:15:55;6.53;;;1.83;;
39344;SDS011;25061;51.954;6.996;2023-09-18T15:18:21;5.32;;;2.00;;
39344;SDS011;25061;51.954;6.996;2023-09-18T15:20:47;5.05;;;1.80;;
39344;SDS011;25061;51.954;6.996;2023-09-18T15:23:13;7.97;;;2.10;;
39344;SDS011;25061;51.954;6.996;2023-09-18T15:25:38;6.00;;;1.95;;
39344;SDS011;25061;51.954;6.996;2023-09-18T15:28:06;7.28;;;2.05;;
39344;SDS011;25061;51.954;6.996;2023-09-18T15:30:32;7.05;;;2.03;;
39344;SDS011;25061;51.954;6.996;2023-09-18T15:32:58;6.22;;;1.80;;
39344;SDS011;25061;51.954;6.996;2023-09-18T15:35:24;8.15;;;1.90;;
39344;SDS011;25061;51.954;6.996;2023-09-18T15:37:50;7.72;;;2.47;;
39344;SDS011;25061;51.954;6.996;2023-09-18T15:40:16;7.28;;;2.20;;
39344;SDS011;25061;51.954;6.996;2023-09-18T15:42:46;4.45;;;1.65;;
39344;SDS011;25061;51.954;6.996;2023-09-18T15:45:13;6.50;;;1.83;;
39344;SDS011;25061;51.954;6.996;2023-09-18T15:47:39;8.05;;;1.95;;
39344;SDS011;25061;51.954;6.996;2023-09-18T15:50:07;4.95;;;1.80;;
39344;SDS011;25061;51.954;6.996;2023-09-18T15:52:33;7.65;;;1.80;;
39344;SDS011;25061;51.954;6.996;2023-09-18T15:55:01;5.75;;;1.90;;
39344;SDS011;25061;51.954;6.996;2023-09-18T15:57:30;6.32;;;2.15;;
39344;SDS011;25061;51.954;6.996;2023-09-18T15:59:56;5.07;;;1.80;;
39344;SDS011;25061;51.954;6.996;2023-09-18T16:02:25;5.10;;;1.95;;
39344;SDS011;25061;51.954;6.996;2023-09-18T16:04:51;5.78;;;1.98;;
39344;SDS011;25061;51.954;6.996;2023-09-18T16:07:20;5.60;;;1.73;;
39344;SDS011;25061;51.954;6.996;2023-09-18T16:09:46;5.70;;;1.60;;
39344;SDS011;25061;51.954;6.996;2023-09-18T16:12:11;5.78;;;2.00;;
39344;SDS011;25061;51.954;6.996;2023-09-18T16:14:38;4.70;;;1.67;;
39344;SDS011;25061;51.954;6.996;2023-09-18T16:17:03;4.78;;;1.83;;
39344;SDS011;25061;51.954;6.996;2023-09-18T16:19:32;7.00;;;1.92;;
39344;SDS011;25061;51.954;6.996;2023-09-18T16:21:59;5.03;;;1.88;;
39344;SDS011;25061;51.954;6.996;2023-09-18T16:24:25;8.15;;;2.05;;
39344;SDS011;25061;51.954;6.996;2023-09-18T16:26:53;4.82;;;1.60;;
39344;SDS011;25061;51.954;6.996;2023-09-18T16:29:21;4.63;;;1.90;;
39344;SDS011;25061;51.954;6.996;2023-09-18T16:31:48;5.63;;;1.73;;
39344;SDS011;25061;51.954;6.996;2023-09-18T16:34:14;7.07;;;2.15;;
39344;SDS011;25061;51.954;6.996;2023-09-18T16:36:40;6.00;;;1.88;;
39344;SDS011;25061;51.954;6.996;2023-09-18T16:39:06;7.10;;;2.13;;
39344;SDS011;25061;51.954;6.996;2023-09-18T16:41:32;9.05;;;2.08;;
39344;SDS011;25061;51.954;6.996;2023-09-18T16:44:00;7.75;;;1.85;;
39344;SDS011;25061;51.954;6.996;2023-09-18T16:46:27;5.10;;;1.85;;
39344;SDS011;25061;51.954;6.996;2023-09-18T16:48:54;5.78;;;1.70;;
39344;SDS011;25061;51.954;6.996;2023-09-18T16:51:20;4.57;;;1.80;;
39344;SDS011;25061;51.954;6.996;2023-09-18T16:53:46;5.57;;;1.90;;
39344;SDS011;25061;51.954;6.996;2023-09-18T16:56:13;7.80;;;2.00;;
39344;SDS011;25061;51.954;6.996;2023-09-18T16:58:39;6.18;;;2.00;;
39344;SDS011;25061;51.954;6.996;2023-09-18T17:01:07;4.30;;;1.77;;
39344;SDS011;25061;51.954;6.996;2023-09-18T17:03:32;4.65;;;1.70;;
39344;SDS011;25061;51.954;6.996;2023-09-18T17:05:58;8.20;;;2.42;;
39344;SDS011;25061;51.954;6.996;2023-09-18T17:08:25;6.78;;;2.35;;
39344;SDS011;25061;51.954;6.996;2023-09-18T17:10:51;4.18;;;1.40;;
39344;SDS011;25061;51.954;6.996;2023-09-18T17:13:16;3.78;;;1.00;;
39344;SDS011;25061;51.954;6.996;2023-09-18T17:15:42;3.38;;;1.00;;
39344;SDS011;25061;51.954;6.996;2023-09-18T17:18:07;4.80;;;1.00;;
39344;SDS011;25061;51.954;6.996;2023-09-18T17:20:35;4.82;;;0.90;;
39344;SDS011;25061;51.954;6.996;2023-09-18T17:23:01;3.38;;;0.95;;
39344;SDS011;25061;51.954;6.996;2023-09-18T17:25:28;5.03;;;1.10;;
39344;SDS011;25061;51.954;6.996;2023-09-18T17:27:54;3.58;;;0.90;;
39344;SDS011;25061;51.954;6.996;2023-09-18T17:30:20;5.90;;;0.95;;
39344;SDS011;25061;51.954;6.996;2023-09-18T17:32:46;2.15;;;0.80;;
39344;SDS011;25061;51.954;6.996;2023-09-18T17:35:13;5.70;;;1.42;;
39344;SDS011;25061;51.954;6.996;2023-09-18T17:37:39;5.65;;;1.20;;
39344;SDS011;25061;51.954;6.996;2023-09-18T17:40:05;10.90;;;1.40;;
39344;SDS011;25061;51.954;6.996;2023-09-18T17:42:31;7.00;;;1.13;;
39344;SDS011;25061;51.954;6.996;2023-09-18T17:44:56;5.22;;;1.42;;
39344;SDS011;25061;51.954;6.996;2023-09-18T17:47:22;4.13;;;1.00;;
39344;SDS011;25061;51.954;6.996;2023-09-18T17:49:47;5.68;;;1.35;;
39344;SDS011;25061;51.954;6.996;2023-09-18T17:52:13;3.05;;;1.10;;
39344;SDS011;25061;51.954;6.996;2023-09-18T17:54:41;3.60;;;0.98;;
39344;SDS011;25061;51.954;6.996;2023-09-18T17:57:07;4.45;;;1.17;;
39344;SDS011;25061;51.954;6.996;2023-09-18T17:59:32;4.10;;;1.10;;
39344;SDS011;25061;51.954;6.996;2023-09-18T18:01:59;3.65;;;1.50;;
39344;SDS011;25061;51.954;6.996;2023-09-18T18:04:25;6.38;;;1.20;;
39344;SDS011;25061;51.954;6.996;2023-09-18T18:06:51;3.85;;;1.27;;
39344;SDS011;25061;51.954;6.996;2023-09-18T18:09:17;5.47;;;1.40;;
39344;SDS011;25061;51.954;6.996;2023-09-18T18:11:43;4.13;;;1.20;;
39344;SDS011;25061;51.954;6.996;2023-09-18T18:14:09;3.95;;;1.10;;
39344;SDS011;25061;51.954;6.996;2023-09-18T18:16:35;4.05;;;1.30;;
39344;SDS011;25061;51.954;6.996;2023-09-18T18:19:01;4.22;;;1.25;;
39344;SDS011;25061;51.954;6.996;2023-09-18T18:21:29;3.72;;;1.15;;
39344;SDS011;25061;51.954;6.996;2023-09-18T18:23:56;3.70;;;1.30;;
39344;SDS011;25061;51.954;6.996;2023-09-18T18:26:22;5.97;;;1.30;;
39344;SDS011;25061;51.954;6.996;2023-09-18T18:28:53;5.30;;;1.45;;
39344;SDS011;25061;51.954;6.996;2023-09-18T18:31:25;3.45;;;1.30;;
39344;SDS011;25061;51.954;6.996;2023-09-18T18:33:52;3.63;;;1.30;;
39344;SDS011;25061;51.954;6.996;2023-09-18T18:36:18;3.95;;;1.60;;
39344;SDS011;25061;51.954;6.996;2023-09-18T18:38:44;3.63;;;1.60;;
39344;SDS011;25061;51.954;6.996;2023-09-18T18:41:10;6.85;;;1.60;;
39344;SDS011;25061;51.954;6.996;2023-09-18T18:43:36;5.22;;;1.73;;
39344;SDS011;25061;51.954;6.996;2023-09-18T18:46:02;6.20;;;1.55;;
39344;SDS011;25061;51.954;6.996;2023-09-18T18:48:30;7.00;;;2.08;;
39344;SDS011;25061;51.954;6.996;2023-09-18T18:50:59;4.78;;;2.03;;
39344;SDS011;25061;51.954;6.996;2023-09-18T18:53:33;4.88;;;1.55;;
39344;SDS011;25061;51.954;6.996;2023-09-18T18:55:59;5.30;;;2.00;;
39344;SDS011;25061;51.954;6.996;2023-09-18T18:58:25;4.03;;;1.83;;
39344;SDS011;25061;51.954;6.996;2023-09-18T19:00:52;5.03;;;2.00;;
39344;SDS011;25061;51.954;6.996;2023-09-18T19:03:21;4.63;;;1.90;;
39344;SDS011;25061;51.954;6.996;2023-09-18T19:05:47;5.20;;;2.17;;
39344;SDS011;25061;51.954;6.996;2023-09-18T19:08:13;7.10;;;2.28;;
39344;SDS011;25061;51.954;6.996;2023-09-18T19:10:38;4.25;;;2.00;;
39344;SDS011;25061;51.954;6.996;2023-09-18T19:13:04;6.05;;;2.33;;
39344;SDS011;25061;51.954;6.996;2023-09-18T19:15:30;6.97;;;2.47;;
39344;SDS011;25061;51.954;6.996;2023-09-18T19:17:56;7.30;;;2.88;;
39344;SDS011;25061;51.954;6.996;2023-09-18T19:20:22;6.57;;;2.38;;
39344;SDS011;25061;51.954;6.996;2023-09-18T19:22:49;6.38;;;2.50;;
39344;SDS011;25061;51.954;6.996;2023-09-18T19:25:17;5.95;;;2.08;;
39344;SDS011;25061;51.954;6.996;2023-09-18T19:27:45;6.80;;;2.50;;
39344;SDS011;25061;51.954;6.996;2023-09-18T19:30:11;4.93;;;2.20;;
39344;SDS011;25061;51.954;6.996;2023-09-18T19:32:38;8.38;;;2.47;;
39344;SDS011;25061;51.954;6.996;2023-09-18T19:35:05;8.93;;;2.55;;